Terminal Aerodrome Forecast
Issued by NWS

Home | Current Version | Previous Version | Text Only | Print | Product List | Glossary On
Versions: 1 2 3 4 5 6 7 8 9 10 11 12 13 14 15 16 17 18 19
000
FTUS41 KBTV 231700
TAFSLK
TAF
KSLK 231728Z 2318/2418 06006KT P6SM BKN035
     FM240000 00000KT P6SM SCT035
     FM240600 00000KT 1/2SM FG VV002
     FM241230 VRB03KT P6SM FEW020=

USA.gov is the U.S. government's official web portal to all federal, state and local government web resources and services.